createdAt,value
2019-04-04T00:01:43.013Z,46.68
2019-04-04T00:04:14.591Z,45.48
2019-04-04T00:06:45.776Z,37.65
2019-04-04T00:09:17.455Z,49.25
2019-04-04T00:11:49.033Z,49.13
2019-04-04T00:14:20.265Z,45.17
2019-04-04T00:16:51.495Z,44.05
2019-04-04T00:19:22.681Z,51.25
2019-04-04T00:21:55.348Z,39.30
2019-04-04T00:24:26.666Z,49.98
2019-04-04T00:26:57.953Z,37.48
2019-04-04T00:29:29.507Z,49.10
2019-04-04T00:32:00.810Z,48.70
2019-04-04T00:34:32.229Z,47.85
2019-04-04T00:37:04.772Z,47.43
2019-04-04T00:39:37.989Z,49.10
2019-04-04T00:42:10.721Z,48.30
2019-04-04T00:44:42.053Z,46.23
2019-04-04T00:47:13.983Z,49.10
2019-04-04T00:49:45.285Z,46.28
2019-04-04T00:52:16.552Z,46.98
2019-04-04T00:54:47.933Z,48.05
2019-04-04T00:57:20.160Z,32.50
2019-04-04T00:59:53.587Z,46.55
2019-04-04T01:02:27.480Z,46.68
2019-04-04T01:05:01.342Z,34.03
2019-04-04T01:07:33.918Z,45.67
2019-04-04T01:10:06.638Z,27.20
2019-04-04T01:12:37.921Z,44.10
2019-04-04T01:15:10.330Z,44.55
2019-04-04T01:17:41.525Z,41.58
2019-04-04T01:20:15.121Z,38.90
2019-04-04T01:22:46.338Z,44.42
2019-04-04T01:25:18.639Z,25.52
2019-04-04T01:27:50.049Z,43.45
2019-04-04T01:30:21.343Z,43.98
2019-04-04T01:32:52.715Z,43.60
2019-04-04T01:35:24.003Z,42.98
2019-04-04T01:37:56.102Z,43.20
2019-04-04T01:40:29.040Z,40.40
2019-04-04T01:43:00.249Z,42.00
2019-04-04T01:45:32.872Z,42.93
2019-04-04T01:48:04.145Z,42.93
2019-04-04T01:50:35.867Z,43.28
2019-04-04T01:53:07.152Z,43.17
2019-04-04T01:55:39.341Z,42.73
2019-04-04T01:58:10.752Z,43.63
2019-04-04T02:00:45.630Z,43.08
2019-04-04T02:03:15.534Z,44.73
2019-04-04T02:05:47.330Z,42.43
2019-04-04T02:08:18.640Z,43.87
2019-04-04T02:10:49.792Z,45.20
2019-04-04T02:13:21.030Z,44.53
2019-04-04T02:15:52.257Z,44.10
2019-04-04T02:18:24.044Z,46.37
2019-04-04T02:20:57.973Z,43.55
2019-04-04T02:23:31.426Z,40.88
2019-04-04T02:26:04.836Z,46.40
2019-04-04T02:28:35.584Z,39.53
2019-04-04T02:31:08.180Z,42.78
2019-04-04T02:33:39.984Z,42.45
2019-04-04T02:36:13.778Z,43.60
2019-04-04T02:38:45.761Z,42.35
2019-04-04T02:41:17.155Z,44.25
2019-04-04T02:43:48.375Z,36.08
2019-04-04T02:46:21.634Z,44.45
2019-04-04T02:48:53.561Z,40.67
2019-04-04T02:51:26.147Z,40.25
2019-04-04T02:53:57.450Z,43.17
2019-04-04T02:56:28.645Z,35.63
2019-04-04T02:59:00.679Z,39.20
2019-04-04T03:01:33.154Z,44.05
2019-04-04T03:04:04.866Z,41.80
2019-04-04T03:06:36.762Z,35.60
2019-04-04T03:09:10.602Z,45.75
2019-04-04T03:11:41.989Z,48.05
2019-04-04T03:14:13.369Z,48.58
2019-04-04T03:16:46.076Z,48.17
2019-04-04T03:19:17.388Z,49.10
2019-04-04T03:21:48.625Z,46.63
2019-04-04T03:24:19.916Z,45.12
2019-04-04T03:26:52.611Z,49.40
2019-04-04T03:29:26.124Z,42.40
2019-04-04T03:31:57.376Z,50.25
2019-04-04T03:34:28.725Z,43.05
2019-04-04T03:37:00.014Z,51.48
2019-04-04T03:39:31.244Z,50.65
2019-04-04T03:42:06.979Z,45.58
2019-04-04T03:44:35.702Z,48.17
2019-04-04T03:47:10.106Z,48.60
2019-04-04T03:49:39.965Z,48.40
2019-04-04T03:52:11.657Z,51.33
2019-04-04T03:54:42.955Z,49.30
2019-04-04T03:57:14.772Z,51.13
2019-04-04T03:59:46.001Z,45.67
2019-04-04T04:02:18.753Z,47.65
2019-04-04T04:04:50.268Z,49.25
2019-04-04T04:07:21.682Z,32.73
2019-04-04T04:09:53.124Z,34.40
2019-04-04T04:12:25.124Z,51.00
2019-04-04T04:14:56.593Z,52.93
2019-04-04T04:17:29.612Z,50.00
2019-04-04T04:20:04.069Z,52.60
2019-04-04T04:22:34.000Z,51.90
2019-04-04T04:25:05.923Z,47.67
2019-04-04T04:27:37.381Z,44.15
2019-04-04T04:30:09.662Z,31.07
2019-04-04T04:32:41.055Z,47.05
2019-04-04T04:35:12.341Z,49.40
2019-04-04T04:37:43.783Z,48.00
2019-04-04T04:40:15.521Z,44.42
2019-04-04T04:42:47.018Z,51.80
2019-04-04T04:45:19.588Z,49.73
2019-04-04T04:47:50.884Z,49.73
2019-04-04T04:50:22.221Z,50.83
2019-04-04T04:52:53.439Z,51.40
2019-04-04T04:55:27.211Z,51.53
2019-04-04T04:57:57.771Z,51.30
2019-04-04T05:00:30.390Z,51.10
2019-04-04T05:03:01.801Z,49.08
2019-04-04T05:05:33.118Z,50.48
2019-04-04T05:08:04.636Z,49.67
2019-04-04T05:10:36.083Z,48.45
2019-04-04T05:13:07.873Z,46.08
2019-04-04T05:15:39.740Z,48.52
2019-04-04T05:18:12.054Z,48.90
2019-04-04T05:20:43.670Z,47.33
2019-04-04T05:23:15.693Z,47.25
2019-04-04T05:25:53.737Z,49.53
2019-04-04T05:28:20.574Z,47.73
2019-04-04T05:30:54.040Z,50.23
2019-04-04T05:33:27.433Z,47.10
2019-04-04T05:35:58.674Z,47.67
2019-04-04T05:38:29.955Z,47.35
2019-04-04T05:41:01.404Z,44.30
2019-04-04T05:43:33.064Z,43.60
2019-04-04T05:46:04.311Z,43.58
2019-04-04T05:48:36.064Z,46.63
2019-04-04T05:51:08.754Z,50.23
2019-04-04T05:53:40.125Z,46.28
2019-04-04T05:56:13.033Z,42.23
2019-04-04T05:58:44.483Z,48.25
2019-04-04T06:01:17.210Z,40.28
2019-04-04T06:03:48.859Z,47.60
2019-04-04T06:06:20.208Z,47.48
2019-04-04T06:08:51.517Z,49.75
2019-04-04T06:11:23.323Z,48.68
2019-04-04T06:13:54.694Z,38.98
2019-04-04T06:16:25.964Z,44.00
2019-04-04T06:18:57.680Z,46.10
2019-04-04T06:21:29.112Z,30.00
2019-04-04T06:24:00.526Z,34.33
2019-04-04T06:26:31.915Z,43.42
2019-04-04T06:29:05.520Z,40.40
2019-04-04T06:31:53.540Z,42.17
2019-04-04T06:34:24.866Z,42.62
2019-04-04T06:36:56.212Z,16.27
2019-04-04T06:39:27.454Z,42.08
2019-04-04T06:41:58.956Z,43.63
2019-04-04T06:44:31.214Z,45.50
2019-04-04T06:47:02.582Z,43.70
2019-04-04T06:49:35.476Z,45.90
2019-04-04T06:52:09.475Z,41.95
2019-04-04T06:54:41.952Z,38.98
2019-04-04T06:57:15.108Z,34.80
2019-04-04T06:59:47.003Z,39.20
2019-04-04T07:02:18.242Z,39.83
2019-04-04T07:04:49.647Z,43.55
2019-04-04T07:07:21.242Z,42.80
2019-04-04T07:09:52.644Z,44.70
2019-04-04T07:12:28.604Z,40.95
2019-04-04T07:15:00.433Z,37.93
2019-04-04T07:17:35.539Z,38.67
2019-04-04T07:20:07.883Z,30.88
2019-04-04T07:22:40.782Z,38.63
2019-04-04T07:25:12.191Z,36.83
2019-04-04T07:27:45.347Z,30.37
2019-04-04T07:30:16.569Z,30.25
2019-04-04T07:32:47.730Z,28.57
2019-04-04T07:35:21.088Z,27.85
2019-04-04T07:37:56.580Z,17.92
2019-04-04T07:40:25.262Z,30.00
2019-04-04T07:42:56.588Z,25.00
2019-04-04T07:45:27.785Z,26.23
2019-04-04T07:47:59.003Z,15.95
2019-04-04T07:50:30.344Z,26.40
2019-04-04T07:53:04.879Z,11.78
2019-04-04T07:55:35.701Z,15.70
2019-04-04T07:58:06.947Z,22.00
2019-04-04T08:00:40.202Z,23.15
2019-04-04T08:03:11.492Z,24.30
2019-04-04T08:05:42.764Z,12.95
2019-04-04T08:08:13.979Z,14.78
2019-04-04T08:10:45.753Z,19.42
2019-04-04T08:13:17.101Z,18.90
2019-04-04T08:15:49.595Z,23.47
2019-04-04T08:18:21.446Z,23.55
2019-04-04T08:20:53.161Z,21.45
2019-04-04T08:23:25.578Z,18.20
2019-04-04T08:25:57.171Z,19.23
2019-04-04T08:28:30.744Z,18.98
2019-04-04T08:32:38.646Z,14.40
2019-04-04T08:35:09.850Z,14.68
2019-04-04T08:37:41.753Z,10.05
2019-04-04T08:40:13.347Z,17.48
2019-04-04T08:42:48.026Z,17.35
2019-04-04T08:45:19.285Z,16.45
2019-04-04T08:47:50.581Z,16.70
2019-04-04T08:50:21.872Z,13.90
2019-04-04T08:52:54.292Z,16.93
2019-04-04T08:55:27.542Z,13.90
2019-04-04T08:57:59.423Z,18.40
2019-04-04T09:00:30.974Z,12.55
2019-04-04T09:03:09.149Z,19.25
2019-04-04T09:05:42.274Z,17.67
2019-04-04T09:08:13.865Z,18.77
2019-04-04T09:10:49.173Z,20.10
2019-04-04T09:13:20.631Z,10.23
2019-04-04T09:15:51.926Z,18.05
2019-04-04T09:18:23.173Z,22.98
2019-04-04T09:20:54.490Z,26.15
2019-04-04T09:23:25.716Z,24.00
2019-04-04T09:26:05.385Z,13.53
2019-04-04T09:28:30.077Z,29.42
2019-04-04T09:31:01.766Z,18.87
2019-04-04T09:33:33.015Z,22.37
2019-04-04T09:36:04.655Z,23.60
2019-04-04T09:38:36.435Z,15.60
2019-04-04T09:41:10.474Z,26.05
2019-04-04T09:43:41.774Z,29.05
2019-04-04T09:46:13.124Z,31.37
2019-04-04T09:50:23.982Z,31.57
2019-04-04T09:52:55.836Z,22.90
2019-04-04T09:55:27.009Z,10.60
2019-04-04T09:57:58.795Z,26.82
2019-04-04T10:00:30.146Z,30.68
2019-04-04T10:03:01.462Z,27.82
2019-04-04T10:05:32.880Z,27.35
2019-04-04T10:08:05.315Z,29.98
2019-04-04T10:10:36.803Z,32.23
2019-04-04T10:13:07.975Z,33.42
2019-04-04T10:15:39.267Z,36.23
2019-04-04T10:18:10.535Z,31.40
2019-04-04T10:20:41.973Z,38.10
2019-04-04T10:23:13.645Z,34.30
2019-04-04T10:25:44.858Z,30.80
2019-04-04T10:28:18.726Z,36.55
2019-04-04T10:30:50.143Z,36.88
2019-04-04T10:33:21.561Z,36.20
2019-04-04T10:35:55.657Z,33.20
2019-04-04T10:38:26.986Z,33.70
2019-04-04T10:40:58.397Z,25.88
2019-04-04T10:43:29.644Z,24.65
2019-04-04T10:46:01.109Z,31.75
2019-04-04T10:48:33.601Z,35.08
2019-04-04T10:51:05.524Z,31.95
2019-04-04T10:53:37.475Z,32.73
2019-04-04T10:56:08.738Z,33.60
2019-04-04T10:58:40.287Z,32.20
2019-04-04T11:01:11.671Z,37.42
2019-04-04T11:03:43.009Z,21.95
2019-04-04T11:06:14.332Z,32.70
2019-04-04T11:08:46.029Z,38.38
2019-04-04T11:11:17.280Z,34.63
2019-04-04T11:13:48.987Z,24.52
2019-04-04T11:16:29.917Z,33.25
2019-04-04T11:18:53.434Z,34.67
2019-04-04T11:21:24.805Z,28.55
2019-04-04T11:23:56.080Z,36.55
2019-04-04T11:26:27.408Z,40.45
2019-04-04T11:28:58.997Z,29.35
2019-04-04T11:31:30.853Z,34.13
2019-04-04T11:34:02.637Z,39.30
2019-04-04T11:36:34.068Z,36.15
2019-04-04T11:39:07.645Z,36.33
2019-04-04T11:41:38.991Z,38.58
2019-04-04T11:44:10.235Z,47.93
2019-04-04T11:46:41.536Z,45.00
2019-04-04T11:49:14.978Z,37.73
2019-04-04T11:51:46.349Z,43.83
2019-04-04T11:54:17.599Z,42.45
2019-04-04T11:56:49.159Z,45.75
2019-04-04T11:59:20.602Z,36.23
2019-04-04T12:01:53.213Z,34.08
2019-04-04T12:04:24.687Z,36.33
2019-04-04T12:06:56.085Z,46.68
2019-04-04T12:09:27.586Z,43.83
2019-04-04T12:11:59.381Z,24.40
2019-04-04T12:14:31.015Z,46.98
2019-04-04T12:17:02.906Z,50.92
2019-04-04T12:19:36.519Z,49.80
2019-04-04T12:22:08.122Z,49.58
2019-04-04T12:24:39.306Z,39.00
2019-04-04T12:27:11.204Z,30.77
2019-04-04T12:29:43.115Z,40.58
2019-04-04T12:32:14.929Z,36.03
2019-04-04T12:34:56.035Z,28.17
2019-04-04T12:37:27.469Z,50.43
2019-04-04T12:40:19.384Z,46.15
2019-04-04T12:42:45.927Z,34.45
2019-04-04T12:45:18.441Z,51.53
2019-04-04T12:48:02.289Z,48.08
2019-04-04T12:50:42.689Z,57.65
2019-04-04T12:53:20.145Z,52.75
2019-04-04T12:55:55.722Z,50.73
2019-04-04T12:58:58.039Z,52.65
2019-04-04T13:01:38.447Z,47.20
2019-04-04T13:07:51.977Z,51.68
2019-04-04T13:10:32.322Z,46.80
2019-04-04T13:13:16.403Z,45.12
2019-04-04T13:16:05.667Z,43.65
2019-04-04T13:18:48.591Z,47.67
2019-04-04T13:21:43.276Z,42.85
2019-04-04T13:24:28.641Z,38.67
2019-04-04T13:27:03.548Z,47.93
2019-04-04T13:29:39.233Z,49.60
2019-04-04T13:32:27.119Z,56.80
2019-04-04T13:35:05.925Z,49.33
2019-04-04T13:37:45.641Z,49.95
2019-04-04T13:40:21.506Z,47.93
2019-04-04T13:42:59.637Z,47.20
2019-04-04T13:45:33.722Z,46.95
2019-04-04T13:48:10.687Z,43.98
2019-04-04T13:50:47.246Z,51.42
2019-04-04T13:53:26.639Z,46.45
2019-04-04T13:56:01.523Z,30.08
2019-04-04T13:58:38.919Z,32.78
2019-04-04T14:01:13.927Z,49.18
2019-04-04T14:03:46.838Z,47.43
2019-04-04T14:06:19.044Z,41.40
2019-04-04T14:08:50.395Z,53.63
2019-04-04T14:11:25.056Z,50.38
2019-04-04T14:13:58.810Z,50.85
2019-04-04T14:16:31.389Z,50.80
2019-04-04T14:19:07.745Z,48.48
2019-04-04T14:21:36.802Z,48.73
2019-04-04T14:24:13.918Z,47.90
2019-04-04T14:26:42.210Z,49.42
2019-04-04T14:29:27.410Z,46.53
2019-04-04T14:31:52.989Z,45.52
2019-04-04T14:34:26.420Z,47.78
2019-04-04T14:36:58.055Z,47.98
2019-04-04T14:39:29.516Z,48.60
2019-04-04T14:42:03.672Z,48.52
2019-04-04T14:44:36.205Z,45.52
2019-04-04T14:47:07.534Z,45.65
2019-04-04T14:49:39.237Z,47.62
2019-04-04T14:52:12.505Z,41.50
2019-04-04T14:54:43.911Z,47.55
2019-04-04T14:57:15.559Z,50.52
2019-04-04T14:59:47.085Z,50.03
2019-04-04T15:02:19.189Z,52.20
2019-04-04T15:04:50.648Z,42.50
2019-04-04T15:07:22.029Z,44.90
2019-04-04T15:09:53.381Z,47.70
2019-04-04T15:12:25.441Z,35.15
2019-04-04T15:14:56.731Z,21.20
2019-04-04T15:17:28.031Z,38.80
2019-04-04T15:19:59.589Z,41.75
2019-04-04T15:22:32.013Z,33.50
2019-04-04T15:25:04.577Z,36.10
2019-04-04T15:27:35.801Z,38.33
2019-04-04T15:30:07.670Z,45.28
2019-04-04T15:32:40.397Z,49.90
2019-04-04T15:35:11.866Z,46.23
2019-04-04T15:37:43.425Z,47.43
2019-04-04T15:40:15.125Z,43.17
2019-04-04T15:42:47.650Z,46.28
2019-04-04T15:45:19.137Z,49.10
2019-04-04T15:47:51.299Z,45.17
2019-04-04T15:50:22.961Z,45.55
2019-04-04T15:52:54.397Z,46.02
2019-04-04T15:55:25.946Z,40.70
2019-04-04T15:58:01.504Z,35.58
2019-04-04T16:00:38.760Z,48.98
2019-04-04T16:03:10.261Z,48.48
2019-04-04T16:05:45.546Z,50.88
2019-04-04T16:08:17.954Z,48.70
2019-04-04T16:10:49.711Z,49.08
2019-04-04T16:13:23.553Z,50.12
2019-04-04T16:15:54.961Z,46.80
2019-04-04T16:18:26.516Z,49.05
2019-04-04T16:20:58.275Z,48.92
2019-04-04T16:23:29.553Z,47.62
2019-04-04T16:26:01.147Z,48.75
2019-04-04T16:28:33.650Z,44.60
2019-04-04T16:31:05.307Z,46.10
2019-04-04T16:33:37.441Z,44.65
2019-04-04T16:36:09.179Z,52.62
2019-04-04T16:38:45.954Z,43.08
2019-04-04T16:41:20.175Z,44.77
2019-04-04T16:43:58.651Z,46.88
2019-04-04T16:46:32.025Z,42.27
2019-04-04T16:49:04.509Z,44.67
2019-04-04T16:51:36.378Z,46.75
2019-04-04T16:54:13.960Z,42.15
2019-04-04T16:56:46.539Z,14.50
2019-04-04T16:59:18.209Z,35.58
2019-04-04T17:01:49.407Z,40.65
2019-04-04T17:04:21.217Z,37.63
2019-04-04T17:06:54.683Z,38.05
2019-04-04T17:09:25.590Z,36.83
2019-04-04T17:11:57.007Z,34.63
2019-04-04T17:14:28.326Z,33.05
2019-04-04T17:17:03.862Z,38.28
2019-04-04T17:19:35.282Z,31.77
2019-04-04T17:22:06.529Z,40.45
2019-04-04T17:24:37.830Z,39.83
2019-04-04T17:27:09.384Z,39.25
2019-04-04T17:29:40.889Z,38.58
2019-04-04T17:32:12.563Z,39.85
2019-04-04T17:34:44.367Z,40.00
2019-04-04T17:37:15.774Z,39.78
2019-04-04T17:39:48.264Z,42.43
2019-04-04T17:42:29.575Z,39.63
2019-04-04T17:44:52.692Z,33.15
2019-04-04T17:47:25.169Z,37.17
2019-04-04T17:49:56.921Z,33.08
2019-04-04T17:52:30.187Z,37.17
2019-04-04T17:55:01.487Z,32.58
2019-04-04T17:57:32.958Z,34.90
2019-04-04T18:00:04.927Z,29.72
2019-04-04T18:02:37.111Z,29.80
2019-04-04T18:05:08.891Z,32.05
2019-04-04T18:07:40.292Z,32.00
2019-04-04T18:10:12.401Z,35.15
2019-04-04T18:12:43.906Z,35.40
2019-04-04T18:15:16.339Z,37.13
2019-04-04T18:17:47.607Z,33.48
2019-04-04T18:20:19.145Z,35.00
2019-04-04T18:22:50.370Z,35.45
2019-04-04T18:25:21.572Z,33.92
2019-04-04T18:27:53.325Z,36.05
2019-04-04T18:30:24.940Z,36.33
2019-04-04T18:32:56.994Z,35.05
2019-04-04T18:35:28.774Z,34.20
2019-04-04T18:38:02.472Z,33.67
2019-04-04T18:40:33.787Z,31.65
2019-04-04T18:43:05.203Z,35.65
2019-04-04T18:45:36.447Z,34.58
2019-04-04T18:48:07.950Z,35.70
2019-04-04T18:50:39.717Z,34.95
2019-04-04T18:53:11.085Z,34.38
2019-04-04T18:55:42.379Z,33.92
2019-04-04T18:58:13.849Z,34.43
2019-04-04T19:00:46.542Z,33.13
2019-04-04T19:03:17.924Z,33.63
2019-04-04T19:05:49.608Z,33.38
2019-04-04T19:08:20.879Z,36.30
2019-04-04T19:10:52.502Z,35.65
2019-04-04T19:13:24.107Z,35.68
2019-04-04T19:15:55.887Z,34.75
2019-04-04T19:18:27.275Z,33.33
2019-04-04T19:20:58.731Z,35.08
2019-04-04T19:23:30.410Z,34.78
2019-04-04T19:26:02.780Z,35.75
2019-04-04T19:28:36.146Z,31.68
2019-04-04T19:31:08.015Z,36.05
2019-04-04T19:33:39.425Z,38.55
2019-04-04T19:36:10.724Z,37.38
2019-04-04T19:38:42.138Z,39.23
2019-04-04T19:41:13.452Z,41.75
2019-04-04T19:43:44.753Z,42.17
2019-04-04T19:46:15.988Z,40.92
2019-04-04T19:48:48.477Z,40.30
2019-04-04T19:51:19.767Z,44.45
2019-04-04T19:53:51.047Z,43.45
2019-04-04T19:56:22.325Z,43.95
2019-04-04T19:58:54.113Z,43.35
2019-04-04T20:01:26.794Z,45.80
2019-04-04T20:03:58.218Z,44.53
2019-04-04T20:06:29.595Z,42.15
2019-04-04T20:09:01.186Z,43.17
2019-04-04T20:11:34.111Z,44.00
2019-04-04T20:14:05.371Z,42.13
2019-04-04T20:16:36.645Z,34.23
2019-04-04T20:19:07.978Z,43.33
2019-04-04T20:21:39.694Z,36.83
2019-04-04T20:24:11.049Z,43.23
2019-04-04T20:26:44.374Z,41.85
2019-04-04T20:29:15.271Z,46.13
2019-04-04T20:31:46.719Z,44.95
2019-04-04T20:34:18.117Z,43.10
2019-04-04T20:36:49.502Z,45.38
2019-04-04T20:39:21.361Z,43.98
2019-04-04T20:41:52.564Z,33.80
2019-04-04T20:44:23.895Z,41.40
2019-04-04T20:46:55.289Z,41.33
2019-04-04T20:49:26.499Z,44.65
2019-04-04T20:51:57.827Z,43.02
2019-04-04T20:54:29.068Z,41.53
2019-04-04T20:57:00.369Z,44.55
2019-04-04T20:59:31.621Z,44.50
2019-04-04T21:02:03.924Z,44.73
2019-04-04T21:04:35.312Z,46.85
2019-04-04T21:07:06.587Z,42.62
2019-04-04T21:09:38.034Z,45.98
2019-04-04T21:12:11.332Z,44.23
2019-04-04T21:14:42.577Z,43.85
2019-04-04T21:17:13.956Z,46.70
2019-04-04T21:19:45.638Z,44.25
2019-04-04T21:22:26.973Z,46.92
2019-04-04T21:24:50.736Z,45.92
2019-04-04T21:27:22.006Z,43.65
2019-04-04T21:29:53.324Z,42.03
2019-04-04T21:32:25.071Z,44.45
2019-04-04T21:34:56.946Z,42.78
2019-04-04T21:37:28.192Z,40.67
2019-04-04T21:39:59.489Z,42.25
2019-04-04T21:42:31.124Z,43.80
2019-04-04T21:45:02.882Z,43.90
2019-04-04T21:47:34.462Z,44.35
2019-04-04T21:50:06.222Z,45.43
2019-04-04T21:52:38.790Z,45.43
2019-04-04T21:55:10.418Z,46.37
2019-04-04T21:57:41.975Z,44.00
2019-04-04T22:00:14.106Z,44.95
2019-04-04T22:02:46.923Z,43.55
2019-04-04T22:05:18.258Z,44.35
2019-04-04T22:07:49.478Z,41.92
2019-04-04T22:10:20.800Z,47.25
2019-04-04T22:12:52.133Z,38.53
2019-04-04T22:15:23.420Z,39.95
2019-04-04T22:17:55.148Z,47.53
2019-04-04T22:20:26.481Z,43.48
2019-04-04T22:22:57.869Z,43.38
2019-04-04T22:25:29.243Z,45.65
2019-04-04T22:28:00.545Z,45.12
2019-04-04T22:30:31.798Z,42.43
2019-04-04T22:33:03.194Z,37.30
2019-04-04T22:35:34.943Z,42.03
2019-04-04T22:38:06.196Z,44.08
2019-04-04T22:40:37.467Z,47.00
2019-04-04T22:43:08.652Z,46.05
2019-04-04T22:48:18.193Z,26.50
2019-04-04T22:50:49.552Z,33.20
2019-04-04T22:53:20.802Z,44.48
2019-04-04T22:55:52.729Z,40.10
2019-04-04T22:58:28.609Z,28.60
2019-04-04T23:00:56.961Z,28.77
2019-04-04T23:03:29.777Z,35.85
2019-04-04T23:06:01.087Z,37.73
2019-04-04T23:08:32.383Z,38.17
2019-04-04T23:11:06.484Z,21.10
2019-04-04T23:13:37.765Z,36.50
2019-04-04T23:16:09.628Z,27.80
2019-04-04T23:18:40.810Z,27.00
2019-04-04T23:21:12.066Z,34.88
2019-04-04T23:23:43.347Z,38.83
2019-04-04T23:26:14.933Z,26.85
2019-04-04T23:28:46.675Z,38.50
2019-04-04T23:31:17.978Z,29.60
2019-04-04T23:33:49.197Z,39.27
2019-04-04T23:36:20.495Z,39.65
2019-04-04T23:38:51.801Z,40.33
2019-04-04T23:41:23.032Z,43.25
2019-04-04T23:43:54.644Z,40.38
2019-04-04T23:46:25.911Z,35.38
2019-04-04T23:48:57.290Z,39.63
2019-04-04T23:51:29.145Z,37.55
2019-04-04T23:54:00.902Z,38.63
2019-04-04T23:56:32.094Z,39.25
2019-04-04T23:59:03.381Z,41.42
